RYR64FN LMML-EGSS
Flight info
| Callsign | RYR64FN |
|---|---|
| Flight time | 3h 19m |
| Altitude | 36000 |
| Route | GZO M622 SOPIR DCT MABOX DCT ADEXI DCT KONUT DCT NUKNI DCT BIKTU DCT UNIMI DCT XEBIX DCT USUDO DCT LIRSU DCT KOZUF DCT IMPOH DCT SASKI L608 SUMUM Y6 TOSVA |
| Aircraft | B738/M-SDE2E3FGHIRWXY/LB1 |
Departure
| Time | 2026-05-04 12:14 |
|---|---|
| Airport | Malta International Airport (LMML) |
Arrival
| Time | 2026-05-04 15:34 |
|---|---|
| Airport | London Stansted Airport (EGSS) |
| Time | Latitude | Longitude | Altitude | Speed | Heading |
|---|---|---|---|---|---|
| 2026-05-04 12:02 | 35.84808 | 14.49513 | 252 ft | 0 kts | 0° |
| 2026-05-04 12:04 | 35.84797 | 14.49513 | 252 ft | 2 kts | 359° |
| 2026-05-04 12:04 | 35.84781 | 14.49513 | 252 ft | 2 kts | 358° |
| 2026-05-04 12:05 | 35.84764 | 14.49514 | 251 ft | 2 kts | 355° |
| 2026-05-04 12:05 | 35.84748 | 14.49517 | 251 ft | 2 kts | 349° |
| 2026-05-04 12:05 | 35.84732 | 14.49523 | 251 ft | 2 kts | 329° |
| 2026-05-04 12:05 | 35.84722 | 14.49532 | 251 ft | 1 kts | 316° |
| 2026-05-04 12:06 | 35.84722 | 14.49533 | 251 ft | 0 kts | 316° |
| 2026-05-04 12:07 | 35.84723 | 14.49532 | 251 ft | 1 kts | 316° |
| 2026-05-04 12:07 | 35.84734 | 14.49517 | 251 ft | 4 kts | 315° |
| 2026-05-04 12:08 | 35.84773 | 14.49469 | 252 ft | 12 kts | 315° |
| 2026-05-04 12:08 | 35.84846 | 14.49377 | 252 ft | 16 kts | 313° |
| 2026-05-04 12:08 | 35.84913 | 14.49290 | 253 ft | 9 kts | 313° |
| 2026-05-04 12:08 | 35.84940 | 14.49217 | 254 ft | 10 kts | 261° |
| 2026-05-04 12:09 | 35.84907 | 14.49144 | 254 ft | 10 kts | 249° |
| 2026-05-04 12:09 | 35.84928 | 14.49070 | 254 ft | 10 kts | 311° |
| 2026-05-04 12:09 | 35.84978 | 14.48967 | 255 ft | 16 kts | 290° |
| 2026-05-04 12:09 | 35.84996 | 14.48901 | 255 ft | 0 kts | 294° |
| 2026-05-04 12:10 | 35.84999 | 14.48891 | 255 ft | 3 kts | 289° |
| 2026-05-04 12:10 | 35.85004 | 14.48863 | 256 ft | 4 kts | 282° |
| 2026-05-04 12:10 | 35.85016 | 14.48794 | 256 ft | 12 kts | 283° |
| 2026-05-04 12:10 | 35.85052 | 14.48665 | 258 ft | 20 kts | 291° |
| 2026-05-04 12:11 | 35.85131 | 14.48520 | 259 ft | 20 kts | 311° |
| 2026-05-04 12:11 | 35.85229 | 14.48400 | 260 ft | 20 kts | 315° |
| 2026-05-04 12:11 | 35.85324 | 14.48283 | 260 ft | 19 kts | 315° |
| 2026-05-04 12:11 | 35.85436 | 14.48144 | 260 ft | 25 kts | 316° |
| 2026-05-04 12:12 | 35.85584 | 14.48053 | 261 ft | 21 kts | 343° |
| 2026-05-04 12:12 | 35.85675 | 14.47979 | 262 ft | 7 kts | 267° |
| 2026-05-04 12:12 | 35.85635 | 14.47927 | 263 ft | 9 kts | 204° |
| 2026-05-04 12:12 | 35.85617 | 14.47927 | 263 ft | 5 kts | 166° |
| 2026-05-04 12:13 | 35.85604 | 14.47939 | 263 ft | 2 kts | 139° |
| 2026-05-04 12:14 | 35.80882 | 14.52268 | 3862 ft | 196 kts | 186° |
| 2026-05-04 12:15 | 35.79595 | 14.51703 | 4776 ft | 211 kts | 215° |
| 2026-05-04 12:15 | 35.78561 | 14.50185 | 5077 ft | 245 kts | 245° |
| 2026-05-04 12:15 | 35.77970 | 14.48378 | 6206 ft | 234 kts | 250° |
| 2026-05-04 12:15 | 35.77470 | 14.46543 | 7478 ft | 223 kts | 256° |
| 2026-05-04 12:16 | 35.77070 | 14.44749 | 8514 ft | 216 kts | 255° |
| 2026-05-04 12:16 | 35.76563 | 14.43051 | 9445 ft | 207 kts | 249° |
| 2026-05-04 12:16 | 35.75913 | 14.41454 | 10005 ft | 218 kts | 245° |
| 2026-05-04 12:16 | 35.75449 | 14.39598 | 10192 ft | 238 kts | 269° |
| 2026-05-04 12:17 | 35.75580 | 14.37474 | 10397 ft | 262 kts | 284° |
| 2026-05-04 12:17 | 35.76183 | 14.35262 | 10600 ft | 286 kts | 298° |
| 2026-05-04 12:17 | 35.77419 | 14.33237 | 10795 ft | 310 kts | 319° |
| 2026-05-04 12:17 | 35.79345 | 14.31876 | 11078 ft | 330 kts | 338° |
| 2026-05-04 12:18 | 35.81540 | 14.30918 | 11643 ft | 339 kts | 340° |
| 2026-05-04 12:18 | 35.83756 | 14.29979 | 12362 ft | 343 kts | 339° |
| 2026-05-04 12:18 | 35.86074 | 14.28962 | 13130 ft | 346 kts | 338° |
| 2026-05-04 12:18 | 35.88344 | 14.27921 | 13858 ft | 350 kts | 337° |
| 2026-05-04 12:19 | 35.90627 | 14.26844 | 14560 ft | 352 kts | 337° |
| 2026-05-04 12:19 | 35.92917 | 14.25744 | 15275 ft | 354 kts | 336° |
| 2026-05-04 12:19 | 35.95212 | 14.24632 | 16014 ft | 355 kts | 336° |
| 2026-05-04 12:19 | 35.97547 | 14.23497 | 16727 ft | 357 kts | 336° |
| 2026-05-04 12:20 | 35.99871 | 14.22366 | 17395 ft | 360 kts | 336° |
| 2026-05-04 12:20 | 36.02207 | 14.21229 | 18084 ft | 362 kts | 336° |
| 2026-05-04 12:20 | 36.04459 | 14.19945 | 18713 ft | 363 kts | 327° |
| 2026-05-04 12:20 | 36.06574 | 14.18156 | 19326 ft | 364 kts | 323° |
| 2026-05-04 12:21 | 36.08600 | 14.16335 | 19892 ft | 366 kts | 322° |
| 2026-05-04 12:21 | 36.10660 | 14.14466 | 20454 ft | 369 kts | 322° |
| 2026-05-04 12:21 | 36.12734 | 14.12592 | 21030 ft | 370 kts | 322° |
| 2026-05-04 12:21 | 36.14829 | 14.10711 | 21582 ft | 373 kts | 322° |
| 2026-05-04 12:22 | 36.16937 | 14.08829 | 22109 ft | 375 kts | 322° |
| 2026-05-04 12:22 | 36.19067 | 14.06935 | 22641 ft | 378 kts | 322° |
| 2026-05-04 12:22 | 36.21239 | 14.05007 | 23172 ft | 380 kts | 322° |
| 2026-05-04 12:22 | 36.23363 | 14.03123 | 23677 ft | 383 kts | 322° |
| 2026-05-04 12:23 | 36.25624 | 14.01117 | 24129 ft | 385 kts | 322° |
| 2026-05-04 12:23 | 36.27811 | 13.99176 | 24588 ft | 386 kts | 322° |
| 2026-05-04 12:23 | 36.29979 | 13.97251 | 25035 ft | 387 kts | 322° |
| 2026-05-04 12:23 | 36.32210 | 13.95268 | 25482 ft | 388 kts | 322° |
| 2026-05-04 12:24 | 36.34413 | 13.93309 | 25911 ft | 390 kts | 322° |
| 2026-05-04 12:24 | 36.36619 | 13.91344 | 26316 ft | 392 kts | 322° |
| 2026-05-04 12:24 | 36.38839 | 13.89366 | 26718 ft | 393 kts | 322° |
| 2026-05-04 12:24 | 36.41065 | 13.87382 | 27120 ft | 395 kts | 322° |
| 2026-05-04 12:25 | 36.43299 | 13.85389 | 27508 ft | 396 kts | 322° |
| 2026-05-04 12:25 | 36.45545 | 13.83384 | 27893 ft | 398 kts | 322° |
| 2026-05-04 12:25 | 36.47797 | 13.81372 | 28265 ft | 400 kts | 322° |
| 2026-05-04 12:25 | 36.50058 | 13.79351 | 28638 ft | 401 kts | 322° |
| 2026-05-04 12:26 | 36.52326 | 13.77320 | 28992 ft | 403 kts | 322° |
| 2026-05-04 12:26 | 36.54603 | 13.75277 | 29356 ft | 404 kts | 322° |
| 2026-05-04 12:26 | 36.56888 | 13.73224 | 29706 ft | 405 kts | 322° |
| 2026-05-04 12:26 | 36.59176 | 13.71167 | 30059 ft | 407 kts | 322° |
| 2026-05-04 12:27 | 36.61462 | 13.69111 | 30501 ft | 404 kts | 322° |
| 2026-05-04 12:27 | 36.63754 | 13.67048 | 30979 ft | 401 kts | 322° |
| 2026-05-04 12:27 | 36.65265 | 13.65688 | 31254 ft | 399 kts | 322° |
| 2026-05-04 12:27 | 36.67529 | 13.63648 | 31611 ft | 399 kts | 322° |
| 2026-05-04 12:28 | 36.69777 | 13.61619 | 31958 ft | 398 kts | 321° |
| 2026-05-04 12:28 | 36.72021 | 13.59594 | 32342 ft | 396 kts | 321° |
| 2026-05-04 12:28 | 36.74256 | 13.57575 | 32740 ft | 394 kts | 321° |
| 2026-05-04 12:28 | 36.76519 | 13.55529 | 33119 ft | 393 kts | 321° |
| 2026-05-04 12:29 | 36.78724 | 13.53535 | 33468 ft | 392 kts | 321° |
| 2026-05-04 12:29 | 36.80929 | 13.51538 | 33813 ft | 391 kts | 321° |
| 2026-05-04 12:29 | 36.83123 | 13.49550 | 34192 ft | 389 kts | 321° |
| 2026-05-04 12:29 | 36.85337 | 13.47543 | 34489 ft | 388 kts | 321° |
| 2026-05-04 12:30 | 36.87522 | 13.45560 | 34709 ft | 388 kts | 321° |
| 2026-05-04 12:30 | 36.89708 | 13.43574 | 34930 ft | 389 kts | 321° |
| 2026-05-04 12:30 | 36.91923 | 13.41561 | 35175 ft | 389 kts | 321° |
| 2026-05-04 12:30 | 36.94112 | 13.39570 | 35381 ft | 390 kts | 321° |
| 2026-05-04 12:31 | 36.96308 | 13.37572 | 35562 ft | 391 kts | 321° |
| 2026-05-04 12:31 | 36.98507 | 13.35569 | 35779 ft | 391 kts | 321° |
| 2026-05-04 12:31 | 37.00672 | 13.33596 | 36037 ft | 390 kts | 321° |
| 2026-05-04 12:31 | 37.02899 | 13.31565 | 36162 ft | 392 kts | 321° |
| 2026-05-04 12:32 | 37.09636 | 13.25409 | 36183 ft | 404 kts | 321° |
| 2026-05-04 12:33 | 37.14212 | 13.21223 | 36178 ft | 409 kts | 321° |
| 2026-05-04 12:33 | 37.18822 | 13.17000 | 36171 ft | 411 kts | 321° |
| 2026-05-04 12:34 | 37.23441 | 13.12765 | 36164 ft | 411 kts | 321° |
| 2026-05-04 12:34 | 37.28060 | 13.08522 | 36166 ft | 411 kts | 321° |
| 2026-05-04 12:35 | 37.32745 | 13.04404 | 36158 ft | 414 kts | 327° |
| 2026-05-04 12:35 | 37.38132 | 13.01596 | 36157 ft | 422 kts | 341° |
| 2026-05-04 12:36 | 37.43921 | 13.00136 | 36164 ft | 425 kts | 344° |
| 2026-05-04 12:36 | 37.49747 | 12.98786 | 36164 ft | 426 kts | 344° |
| 2026-05-04 12:37 | 37.55530 | 12.97422 | 36163 ft | 426 kts | 343° |
| 2026-05-04 12:37 | 37.61345 | 12.96022 | 36161 ft | 426 kts | 343° |
| 2026-05-04 12:38 | 37.67169 | 12.94607 | 36158 ft | 426 kts | 343° |
| 2026-05-04 12:38 | 37.72989 | 12.93188 | 36156 ft | 426 kts | 343° |
| 2026-05-04 12:39 | 37.78814 | 12.91766 | 36149 ft | 426 kts | 343° |
| 2026-05-04 12:39 | 37.84631 | 12.90345 | 36153 ft | 426 kts | 343° |
| 2026-05-04 12:40 | 37.90444 | 12.88921 | 36150 ft | 425 kts | 343° |
| 2026-05-04 12:40 | 37.96257 | 12.87497 | 36152 ft | 426 kts | 343° |
| 2026-05-04 12:41 | 38.02071 | 12.86068 | 36151 ft | 426 kts | 344° |
| 2026-05-04 12:41 | 38.07894 | 12.84636 | 36133 ft | 426 kts | 343° |
| 2026-05-04 12:42 | 38.13714 | 12.83202 | 36141 ft | 426 kts | 344° |
| 2026-05-04 12:42 | 38.19525 | 12.81767 | 36138 ft | 425 kts | 344° |
| 2026-05-04 12:43 | 38.25332 | 12.80332 | 36141 ft | 425 kts | 344° |
| 2026-05-04 12:43 | 38.31140 | 12.78894 | 36140 ft | 425 kts | 344° |
| 2026-05-04 12:44 | 38.36943 | 12.77455 | 36142 ft | 425 kts | 344° |
| 2026-05-04 12:44 | 38.42750 | 12.76012 | 36143 ft | 425 kts | 344° |
| 2026-05-04 12:45 | 38.48555 | 12.74568 | 36144 ft | 425 kts | 344° |
| 2026-05-04 12:45 | 38.54356 | 12.73122 | 36151 ft | 425 kts | 344° |
| 2026-05-04 12:46 | 38.60155 | 12.71674 | 36146 ft | 424 kts | 344° |
| 2026-05-04 12:46 | 38.65947 | 12.70226 | 36148 ft | 424 kts | 344° |
| 2026-05-04 12:47 | 38.71736 | 12.68777 | 36150 ft | 423 kts | 344° |
| 2026-05-04 12:47 | 38.77509 | 12.67329 | 36140 ft | 423 kts | 343° |
| 2026-05-04 12:48 | 38.83276 | 12.65880 | 36145 ft | 422 kts | 343° |
| 2026-05-04 12:48 | 38.89027 | 12.64432 | 36141 ft | 421 kts | 343° |
| 2026-05-04 12:49 | 38.94973 | 12.62933 | 36151 ft | 420 kts | 343° |
| 2026-05-04 12:49 | 39.00709 | 12.61484 | 36147 ft | 420 kts | 343° |
| 2026-05-04 12:50 | 39.06438 | 12.60035 | 36146 ft | 419 kts | 343° |
| 2026-05-04 12:50 | 39.11193 | 12.58830 | 36146 ft | 419 kts | 343° |
| 2026-05-04 12:51 | 39.16948 | 12.57370 | 36144 ft | 418 kts | 343° |
| 2026-05-04 12:51 | 39.22658 | 12.55919 | 36146 ft | 418 kts | 343° |
| 2026-05-04 12:52 | 39.28358 | 12.54467 | 36144 ft | 418 kts | 342° |
| 2026-05-04 12:52 | 39.34103 | 12.53002 | 36149 ft | 417 kts | 342° |
| 2026-05-04 12:53 | 39.39834 | 12.51538 | 36143 ft | 417 kts | 342° |
| 2026-05-04 12:53 | 39.45536 | 12.50079 | 36146 ft | 418 kts | 342° |
| 2026-05-04 12:54 | 39.51236 | 12.48618 | 36149 ft | 418 kts | 342° |
| 2026-05-04 12:54 | 39.56987 | 12.47141 | 36144 ft | 419 kts | 342° |
| 2026-05-04 12:55 | 39.62702 | 12.45671 | 36143 ft | 419 kts | 342° |
| 2026-05-04 12:55 | 39.68475 | 12.44184 | 36144 ft | 420 kts | 342° |
| 2026-05-04 12:56 | 39.74256 | 12.42692 | 36141 ft | 421 kts | 342° |
| 2026-05-04 12:56 | 39.80011 | 12.41205 | 36142 ft | 422 kts | 342° |
| 2026-05-04 12:57 | 39.85817 | 12.39701 | 36141 ft | 423 kts | 342° |
| 2026-05-04 12:57 | 39.91595 | 12.38203 | 36142 ft | 424 kts | 342° |
| 2026-05-04 12:58 | 39.97376 | 12.36701 | 36144 ft | 424 kts | 342° |
| 2026-05-04 12:58 | 40.03171 | 12.35193 | 36144 ft | 425 kts | 342° |
| 2026-05-04 12:59 | 40.08971 | 12.33681 | 36143 ft | 425 kts | 342° |
| 2026-05-04 12:59 | 40.14656 | 12.32207 | 36127 ft | 405 kts | 341° |
| 2026-05-04 13:00 | 40.20148 | 12.30776 | 36141 ft | 398 kts | 341° |
| 2026-05-04 13:00 | 40.23958 | 12.29772 | 36149 ft | 398 kts | 341° |
| 2026-05-04 13:01 | 40.29429 | 12.28330 | 36145 ft | 399 kts | 341° |
| 2026-05-04 13:01 | 40.34856 | 12.26901 | 36148 ft | 399 kts | 341° |
| 2026-05-04 13:02 | 40.40265 | 12.25476 | 36143 ft | 400 kts | 341° |
| 2026-05-04 13:02 | 40.45763 | 12.24027 | 36142 ft | 401 kts | 341° |
| 2026-05-04 13:03 | 40.51249 | 12.22578 | 36145 ft | 402 kts | 341° |
| 2026-05-04 13:03 | 40.55885 | 12.21352 | 36140 ft | 403 kts | 341° |
| 2026-05-04 13:04 | 40.61585 | 12.19842 | 36140 ft | 403 kts | 341° |
| 2026-05-04 13:04 | 40.67210 | 12.18350 | 36145 ft | 404 kts | 341° |
| 2026-05-04 13:05 | 40.72718 | 12.16886 | 36132 ft | 405 kts | 341° |
| 2026-05-04 13:05 | 40.78327 | 12.15392 | 36142 ft | 405 kts | 341° |
| 2026-05-04 13:06 | 40.83891 | 12.13908 | 36139 ft | 405 kts | 341° |
| 2026-05-04 13:06 | 40.89421 | 12.12431 | 36138 ft | 406 kts | 341° |
| 2026-05-04 13:07 | 40.94953 | 12.10951 | 36139 ft | 406 kts | 341° |
| 2026-05-04 13:07 | 41.00490 | 12.09466 | 36138 ft | 406 kts | 342° |
| 2026-05-04 13:08 | 41.06023 | 12.07981 | 36140 ft | 406 kts | 342° |
| 2026-05-04 13:08 | 41.11556 | 12.06492 | 36140 ft | 406 kts | 341° |
| 2026-05-04 13:09 | 41.17098 | 12.04998 | 36138 ft | 406 kts | 341° |
| 2026-05-04 13:09 | 41.22673 | 12.03493 | 36140 ft | 406 kts | 341° |
| 2026-05-04 13:10 | 41.28212 | 12.01996 | 36143 ft | 406 kts | 341° |
| 2026-05-04 13:10 | 41.33816 | 12.00778 | 36139 ft | 410 kts | 345° |
| 2026-05-04 13:11 | 41.39479 | 11.99826 | 36144 ft | 410 kts | 346° |
| 2026-05-04 13:11 | 41.45144 | 11.98879 | 36146 ft | 410 kts | 346° |
| 2026-05-04 13:12 | 41.50844 | 11.97893 | 36145 ft | 410 kts | 345° |
| 2026-05-04 13:12 | 41.56502 | 11.96896 | 36148 ft | 410 kts | 345° |
| 2026-05-04 13:13 | 41.62168 | 11.95889 | 36143 ft | 411 kts | 345° |
| 2026-05-04 13:13 | 41.67831 | 11.94881 | 36151 ft | 411 kts | 345° |
| 2026-05-04 13:14 | 41.73545 | 11.93862 | 36155 ft | 411 kts | 345° |
| 2026-05-04 13:14 | 41.79218 | 11.92849 | 36208 ft | 412 kts | 345° |
| 2026-05-04 13:15 | 41.84891 | 11.91834 | 36225 ft | 412 kts | 345° |
| 2026-05-04 13:15 | 41.90579 | 11.90815 | 36230 ft | 412 kts | 345° |
| 2026-05-04 13:16 | 41.96270 | 11.89793 | 36229 ft | 413 kts | 346° |
| 2026-05-04 13:16 | 42.01962 | 11.88769 | 36217 ft | 413 kts | 346° |
| 2026-05-04 13:17 | 42.06757 | 11.87905 | 36203 ft | 414 kts | 346° |
| 2026-05-04 13:17 | 42.12415 | 11.86884 | 36195 ft | 414 kts | 346° |
| 2026-05-04 13:18 | 42.18166 | 11.85844 | 36160 ft | 415 kts | 346° |
| 2026-05-04 13:18 | 42.23900 | 11.84805 | 36143 ft | 416 kts | 346° |
| 2026-05-04 13:19 | 42.29634 | 11.83766 | 36150 ft | 416 kts | 346° |
| 2026-05-04 13:19 | 42.35370 | 11.82723 | 36160 ft | 416 kts | 346° |
| 2026-05-04 13:20 | 42.41057 | 11.81687 | 36153 ft | 417 kts | 346° |
| 2026-05-04 13:20 | 42.46341 | 11.80723 | 36152 ft | 418 kts | 346° |
| 2026-05-04 13:21 | 42.52153 | 11.79661 | 36156 ft | 418 kts | 346° |
| 2026-05-04 13:21 | 42.57910 | 11.78606 | 36150 ft | 419 kts | 346° |
| 2026-05-04 13:22 | 42.63726 | 11.77540 | 36151 ft | 419 kts | 346° |
| 2026-05-04 13:22 | 42.69524 | 11.76474 | 36136 ft | 420 kts | 346° |
| 2026-05-04 13:23 | 42.75397 | 11.75393 | 36141 ft | 421 kts | 346° |
| 2026-05-04 13:23 | 42.81180 | 11.74326 | 36131 ft | 421 kts | 346° |
| 2026-05-04 13:24 | 42.86988 | 11.73253 | 36131 ft | 421 kts | 346° |
| 2026-05-04 13:24 | 42.92785 | 11.72179 | 36147 ft | 421 kts | 346° |
| 2026-05-04 13:25 | 43.01516 | 11.70558 | 36130 ft | 422 kts | 346° |
| 2026-05-04 13:25 | 43.07345 | 11.69473 | 36127 ft | 423 kts | 347° |
| 2026-05-04 13:26 | 43.13181 | 11.68386 | 36131 ft | 423 kts | 347° |
| 2026-05-04 13:26 | 43.19024 | 11.67294 | 36129 ft | 424 kts | 347° |
| 2026-05-04 13:27 | 43.24869 | 11.66200 | 36120 ft | 424 kts | 347° |
| 2026-05-04 13:27 | 43.30728 | 11.65102 | 36117 ft | 425 kts | 347° |
| 2026-05-04 13:28 | 43.36580 | 11.64002 | 36125 ft | 425 kts | 347° |
| 2026-05-04 13:28 | 43.42436 | 11.62900 | 36125 ft | 425 kts | 347° |
| 2026-05-04 13:29 | 43.48304 | 11.61793 | 36125 ft | 425 kts | 347° |
| 2026-05-04 13:29 | 43.54241 | 11.60671 | 36115 ft | 425 kts | 347° |
| 2026-05-04 13:30 | 43.60108 | 11.59560 | 36122 ft | 426 kts | 347° |
| 2026-05-04 13:30 | 43.66025 | 11.58437 | 36104 ft | 427 kts | 347° |
| 2026-05-04 13:31 | 43.71864 | 11.57327 | 36122 ft | 427 kts | 347° |
| 2026-05-04 13:31 | 43.77762 | 11.56204 | 36111 ft | 428 kts | 347° |
| 2026-05-04 13:32 | 43.83688 | 11.55285 | 36121 ft | 430 kts | 351° |
| 2026-05-04 13:32 | 43.89662 | 11.54813 | 36100 ft | 432 kts | 352° |
| 2026-05-04 13:33 | 43.95647 | 11.54320 | 36115 ft | 430 kts | 352° |
| 2026-05-04 13:33 | 44.01621 | 11.53753 | 36110 ft | 430 kts | 351° |
| 2026-05-04 13:34 | 44.07559 | 11.52860 | 36115 ft | 429 kts | 349° |
| 2026-05-04 13:34 | 44.13489 | 11.51854 | 36118 ft | 429 kts | 349° |
| 2026-05-04 13:35 | 44.22402 | 11.50391 | 36128 ft | 431 kts | 349° |
| 2026-05-04 13:36 | 44.28303 | 11.49447 | 36116 ft | 431 kts | 349° |
| 2026-05-04 13:36 | 44.34340 | 11.48487 | 36102 ft | 432 kts | 350° |
| 2026-05-04 13:37 | 44.40316 | 11.47533 | 36088 ft | 433 kts | 350° |
| 2026-05-04 13:37 | 44.46300 | 11.46577 | 36080 ft | 433 kts | 350° |
| 2026-05-04 13:38 | 44.51315 | 11.45774 | 36081 ft | 433 kts | 350° |
| 2026-05-04 13:38 | 44.57296 | 11.44813 | 36077 ft | 433 kts | 350° |
| 2026-05-04 13:39 | 44.63281 | 11.43850 | 36078 ft | 433 kts | 350° |
| 2026-05-04 13:39 | 44.69274 | 11.42884 | 36086 ft | 434 kts | 350° |
| 2026-05-04 13:40 | 44.75276 | 11.41914 | 36082 ft | 435 kts | 350° |
| 2026-05-04 13:40 | 44.81285 | 11.40941 | 36088 ft | 435 kts | 350° |
| 2026-05-04 13:41 | 44.87312 | 11.39963 | 36085 ft | 436 kts | 350° |
| 2026-05-04 13:41 | 44.93335 | 11.38984 | 36085 ft | 436 kts | 350° |
| 2026-05-04 13:42 | 45.02391 | 11.37508 | 36079 ft | 437 kts | 350° |
| 2026-05-04 13:42 | 45.08442 | 11.36519 | 36075 ft | 438 kts | 351° |
| 2026-05-04 13:43 | 45.14436 | 11.35537 | 36074 ft | 439 kts | 351° |
| 2026-05-04 13:43 | 45.20500 | 11.34542 | 36072 ft | 439 kts | 351° |
| 2026-05-04 13:44 | 45.26568 | 11.33544 | 36076 ft | 439 kts | 351° |
| 2026-05-04 13:44 | 45.32598 | 11.32550 | 36060 ft | 439 kts | 351° |
| 2026-05-04 13:45 | 45.38713 | 11.31540 | 36066 ft | 440 kts | 351° |
| 2026-05-04 13:45 | 45.44753 | 11.30539 | 36065 ft | 440 kts | 351° |
| 2026-05-04 13:46 | 45.50837 | 11.29530 | 36073 ft | 441 kts | 351° |
| 2026-05-04 13:46 | 45.56934 | 11.28516 | 36073 ft | 441 kts | 351° |
| 2026-05-04 13:47 | 45.63044 | 11.27497 | 36056 ft | 442 kts | 351° |
| 2026-05-04 13:47 | 45.69156 | 11.26477 | 36063 ft | 442 kts | 351° |
| 2026-05-04 13:48 | 45.75262 | 11.25455 | 36077 ft | 442 kts | 351° |
| 2026-05-04 13:48 | 45.81370 | 11.24430 | 36082 ft | 442 kts | 351° |
| 2026-05-04 13:49 | 45.87465 | 11.23405 | 36080 ft | 441 kts | 351° |
| 2026-05-04 13:49 | 45.93565 | 11.22378 | 36075 ft | 441 kts | 351° |
| 2026-05-04 13:50 | 45.99670 | 11.21347 | 36091 ft | 442 kts | 351° |
| 2026-05-04 13:50 | 46.05768 | 11.20315 | 36120 ft | 442 kts | 351° |
| 2026-05-04 13:51 | 46.11877 | 11.19279 | 36161 ft | 442 kts | 351° |
| 2026-05-04 13:51 | 46.17988 | 11.18240 | 36186 ft | 443 kts | 351° |
| 2026-05-04 13:52 | 46.27172 | 11.16673 | 36220 ft | 444 kts | 351° |
| 2026-05-04 13:53 | 46.33316 | 11.15623 | 36211 ft | 444 kts | 351° |
| 2026-05-04 13:53 | 46.39458 | 11.14571 | 36212 ft | 444 kts | 351° |
| 2026-05-04 13:54 | 46.45603 | 11.13516 | 36023 ft | 445 kts | 351° |
| 2026-05-04 13:54 | 46.48673 | 11.12988 | 36024 ft | 445 kts | 351° |
| 2026-05-04 13:55 | 46.57876 | 11.11401 | 36005 ft | 443 kts | 351° |
| 2026-05-04 13:55 | 46.67037 | 11.09816 | 36010 ft | 441 kts | 351° |
| 2026-05-04 13:56 | 46.73119 | 11.08761 | 36019 ft | 440 kts | 351° |
| 2026-05-04 13:57 | 46.82230 | 11.07153 | 36030 ft | 439 kts | 347° |
| 2026-05-04 13:58 | 46.92932 | 10.99394 | 36028 ft | 429 kts | 320° |
| 2026-05-04 13:58 | 47.00104 | 10.91493 | 36028 ft | 431 kts | 320° |
| 2026-05-04 13:59 | 47.04930 | 10.86238 | 36027 ft | 434 kts | 320° |
| 2026-05-04 14:00 | 47.12221 | 10.78337 | 36030 ft | 434 kts | 320° |
| 2026-05-04 14:00 | 47.19566 | 10.70360 | 36004 ft | 436 kts | 320° |
| 2026-05-04 14:02 | 47.21774 | 10.67956 | 36010 ft | 436 kts | 320° |
| 2026-05-04 14:02 | 47.26649 | 10.62636 | 36010 ft | 436 kts | 320° |
| 2026-05-04 14:03 | 47.31512 | 10.57316 | 36018 ft | 434 kts | 320° |
| 2026-05-04 14:03 | 47.36354 | 10.52008 | 36010 ft | 434 kts | 320° |
| 2026-05-04 14:04 | 47.43555 | 10.43994 | 36011 ft | 431 kts | 319° |
| 2026-05-04 14:04 | 47.48262 | 10.38555 | 35988 ft | 428 kts | 319° |
| 2026-05-04 14:05 | 47.55288 | 10.30414 | 35997 ft | 428 kts | 319° |
| 2026-05-04 14:06 | 47.59983 | 10.24977 | 35977 ft | 429 kts | 319° |
| 2026-05-04 14:06 | 47.64680 | 10.19532 | 35975 ft | 429 kts | 319° |
| 2026-05-04 14:07 | 47.69384 | 10.14065 | 35972 ft | 430 kts | 319° |
| 2026-05-04 14:07 | 47.73513 | 10.09256 | 35967 ft | 430 kts | 319° |
| 2026-05-04 14:08 | 47.78223 | 10.03757 | 35968 ft | 431 kts | 319° |
| 2026-05-04 14:08 | 47.82943 | 9.98234 | 35968 ft | 432 kts | 318° |
| 2026-05-04 14:09 | 47.90027 | 9.89920 | 35970 ft | 433 kts | 318° |
| 2026-05-04 14:10 | 47.97123 | 9.81561 | 35969 ft | 433 kts | 318° |
| 2026-05-04 14:10 | 48.00509 | 9.77562 | 35969 ft | 434 kts | 318° |
| 2026-05-04 14:11 | 48.04416 | 9.72939 | 35962 ft | 434 kts | 318° |
| 2026-05-04 14:11 | 48.11358 | 9.64310 | 35982 ft | 431 kts | 313° |
| 2026-05-04 14:12 | 48.15663 | 9.58054 | 35964 ft | 431 kts | 311° |
| 2026-05-04 14:13 | 48.22060 | 9.48628 | 35971 ft | 429 kts | 312° |
| 2026-05-04 14:13 | 48.26331 | 9.42382 | 35967 ft | 428 kts | 312° |
| 2026-05-04 14:14 | 48.30600 | 9.36150 | 35968 ft | 427 kts | 312° |
| 2026-05-04 14:14 | 48.36246 | 9.27892 | 35983 ft | 426 kts | 312° |
| 2026-05-04 14:15 | 48.44759 | 9.15387 | 35971 ft | 425 kts | 311° |
| 2026-05-04 14:16 | 48.51107 | 9.06022 | 35965 ft | 426 kts | 311° |
| 2026-05-04 14:17 | 48.57444 | 8.96637 | 35972 ft | 426 kts | 311° |
| 2026-05-04 14:18 | 48.63775 | 8.87227 | 35971 ft | 425 kts | 311° |
| 2026-05-04 14:19 | 48.72201 | 8.74648 | 35979 ft | 426 kts | 311° |
| 2026-05-04 14:19 | 48.76416 | 8.68333 | 35978 ft | 426 kts | 311° |
| 2026-05-04 14:20 | 48.80651 | 8.61970 | 35983 ft | 426 kts | 311° |
| 2026-05-04 14:20 | 48.84863 | 8.55627 | 35984 ft | 426 kts | 310° |
| 2026-05-04 14:21 | 48.91234 | 8.46002 | 35990 ft | 427 kts | 310° |
| 2026-05-04 14:21 | 48.95437 | 8.39632 | 35993 ft | 427 kts | 310° |
| 2026-05-04 14:22 | 48.99656 | 8.33222 | 35987 ft | 428 kts | 310° |
| 2026-05-04 14:22 | 49.03866 | 8.26809 | 36000 ft | 428 kts | 310° |
| 2026-05-04 14:23 | 49.10212 | 8.17110 | 35985 ft | 434 kts | 310° |
| 2026-05-04 14:24 | 49.14478 | 8.10569 | 35978 ft | 435 kts | 310° |
| 2026-05-04 14:24 | 49.18736 | 8.04029 | 35979 ft | 433 kts | 310° |
| 2026-05-04 14:25 | 49.22962 | 7.97520 | 35988 ft | 430 kts | 310° |
| 2026-05-04 14:25 | 49.29221 | 7.87698 | 35987 ft | 424 kts | 306° |
| 2026-05-04 14:26 | 49.32949 | 7.80735 | 35991 ft | 421 kts | 303° |
| 2026-05-04 14:26 | 49.36574 | 7.73670 | 35988 ft | 422 kts | 303° |
| 2026-05-04 14:27 | 49.40226 | 7.66607 | 35983 ft | 423 kts | 304° |
| 2026-05-04 14:27 | 49.43909 | 7.59544 | 35990 ft | 424 kts | 304° |
| 2026-05-04 14:28 | 49.47611 | 7.52457 | 35993 ft | 426 kts | 304° |
| 2026-05-04 14:28 | 49.51339 | 7.45308 | 35985 ft | 428 kts | 304° |
| 2026-05-04 14:29 | 49.58866 | 7.30813 | 35997 ft | 431 kts | 303° |
| 2026-05-04 14:30 | 49.62537 | 7.23714 | 35994 ft | 431 kts | 303° |
| 2026-05-04 14:31 | 49.68137 | 7.12848 | 36018 ft | 431 kts | 303° |
| 2026-05-04 14:32 | 49.75596 | 6.98305 | 36005 ft | 429 kts | 303° |
| 2026-05-04 14:32 | 49.79297 | 6.91058 | 35999 ft | 429 kts | 303° |
| 2026-05-04 14:33 | 49.82983 | 6.83819 | 35993 ft | 428 kts | 303° |
| 2026-05-04 14:33 | 49.86662 | 6.76576 | 35996 ft | 427 kts | 303° |
| 2026-05-04 14:34 | 49.90326 | 6.69342 | 35999 ft | 426 kts | 303° |
| 2026-05-04 14:34 | 49.94011 | 6.62047 | 36007 ft | 427 kts | 303° |
| 2026-05-04 14:35 | 49.97642 | 6.54836 | 36004 ft | 427 kts | 303° |
| 2026-05-04 14:35 | 50.01316 | 6.47524 | 36002 ft | 427 kts | 303° |
| 2026-05-04 14:36 | 50.04981 | 6.40207 | 35996 ft | 428 kts | 303° |
| 2026-05-04 14:36 | 50.08634 | 6.32894 | 35997 ft | 428 kts | 303° |
| 2026-05-04 14:37 | 50.12289 | 6.25558 | 36001 ft | 429 kts | 303° |
| 2026-05-04 14:37 | 50.15948 | 6.18191 | 36000 ft | 430 kts | 302° |
| 2026-05-04 14:38 | 50.19637 | 6.10745 | 35997 ft | 431 kts | 302° |
| 2026-05-04 14:38 | 50.23269 | 6.03392 | 36000 ft | 431 kts | 302° |
| 2026-05-04 14:39 | 50.26931 | 5.95958 | 35995 ft | 432 kts | 302° |
| 2026-05-04 14:39 | 50.30512 | 5.88668 | 35994 ft | 432 kts | 302° |
| 2026-05-04 14:40 | 50.35990 | 5.77478 | 35992 ft | 431 kts | 302° |
| 2026-05-04 14:40 | 50.39632 | 5.70011 | 35989 ft | 431 kts | 302° |
| 2026-05-04 14:41 | 50.43271 | 5.62529 | 35992 ft | 431 kts | 302° |
| 2026-05-04 14:42 | 50.49912 | 5.48819 | 35993 ft | 430 kts | 302° |
| 2026-05-04 14:42 | 50.53523 | 5.41334 | 35997 ft | 430 kts | 302° |
| 2026-05-04 14:43 | 50.57131 | 5.33834 | 35992 ft | 430 kts | 302° |
| 2026-05-04 14:43 | 50.60734 | 5.26322 | 35991 ft | 430 kts | 302° |
| 2026-05-04 14:44 | 50.64326 | 5.18812 | 35989 ft | 429 kts | 302° |
| 2026-05-04 14:44 | 50.67915 | 5.11286 | 35985 ft | 429 kts | 302° |
| 2026-05-04 14:45 | 50.71500 | 5.03748 | 35985 ft | 430 kts | 302° |
| 2026-05-04 14:45 | 50.75078 | 4.96201 | 35984 ft | 430 kts | 302° |
| 2026-05-04 14:46 | 50.78659 | 4.88628 | 35983 ft | 431 kts | 302° |
| 2026-05-04 14:46 | 50.82244 | 4.81022 | 35980 ft | 432 kts | 302° |
| 2026-05-04 14:47 | 50.85834 | 4.73386 | 35977 ft | 433 kts | 302° |
| 2026-05-04 14:47 | 50.89423 | 4.65729 | 35967 ft | 433 kts | 302° |
| 2026-05-04 14:48 | 50.93014 | 4.58044 | 35967 ft | 434 kts | 302° |
| 2026-05-04 14:48 | 50.96600 | 4.50348 | 35974 ft | 435 kts | 302° |
| 2026-05-04 14:49 | 51.00192 | 4.42615 | 35973 ft | 435 kts | 302° |
| 2026-05-04 14:49 | 51.03600 | 4.35258 | 35972 ft | 436 kts | 302° |
| 2026-05-04 14:50 | 51.07188 | 4.27489 | 35996 ft | 436 kts | 302° |
| 2026-05-04 14:50 | 51.10771 | 4.19708 | 35989 ft | 436 kts | 302° |
| 2026-05-04 14:51 | 51.14349 | 4.11916 | 35983 ft | 436 kts | 302° |
| 2026-05-04 14:51 | 51.17937 | 4.04078 | 35980 ft | 435 kts | 302° |
| 2026-05-04 14:52 | 51.21470 | 3.96335 | 35974 ft | 434 kts | 301° |
| 2026-05-04 14:52 | 51.25040 | 3.88489 | 35972 ft | 433 kts | 301° |
| 2026-05-04 14:53 | 51.28572 | 3.80700 | 35974 ft | 433 kts | 301° |
| 2026-05-04 14:53 | 51.32095 | 3.72913 | 35979 ft | 432 kts | 301° |
| 2026-05-04 14:54 | 51.35312 | 3.64921 | 35975 ft | 421 kts | 290° |
| 2026-05-04 14:54 | 51.37102 | 3.56137 | 35992 ft | 414 kts | 281° |
| 2026-05-04 14:55 | 51.38596 | 3.47249 | 35975 ft | 408 kts | 281° |
| 2026-05-04 14:55 | 51.39333 | 3.42947 | 35978 ft | 394 kts | 281° |
| 2026-05-04 14:55 | 51.40043 | 3.38842 | 35963 ft | 381 kts | 281° |
| 2026-05-04 14:56 | 51.40741 | 3.34824 | 35964 ft | 368 kts | 281° |
| 2026-05-04 14:56 | 51.41403 | 3.31013 | 35965 ft | 357 kts | 280° |
| 2026-05-04 14:56 | 51.42755 | 3.23161 | 36009 ft | 366 kts | 281° |
| 2026-05-04 14:57 | 51.44135 | 3.15139 | 36010 ft | 380 kts | 281° |
| 2026-05-04 14:57 | 51.45547 | 3.06863 | 35997 ft | 382 kts | 280° |
| 2026-05-04 14:58 | 51.46891 | 2.98729 | 35984 ft | 372 kts | 280° |
| 2026-05-04 14:58 | 51.48210 | 2.90677 | 35997 ft | 372 kts | 280° |
| 2026-05-04 14:59 | 51.49529 | 2.82594 | 36006 ft | 375 kts | 280° |
| 2026-05-04 15:00 | 51.51509 | 2.70415 | 35999 ft | 377 kts | 280° |
| 2026-05-04 15:00 | 51.52833 | 2.62236 | 35988 ft | 379 kts | 280° |
| 2026-05-04 15:01 | 51.54829 | 2.49891 | 35996 ft | 380 kts | 282° |
| 2026-05-04 15:01 | 51.56606 | 2.41858 | 35990 ft | 381 kts | 286° |
| 2026-05-04 15:02 | 51.58457 | 2.33895 | 35985 ft | 380 kts | 286° |
| 2026-05-04 15:02 | 51.60272 | 2.25940 | 35986 ft | 378 kts | 286° |
| 2026-05-04 15:03 | 51.62068 | 2.18026 | 35993 ft | 376 kts | 286° |
| 2026-05-04 15:03 | 51.64627 | 2.10696 | 36016 ft | 384 kts | 311° |
| 2026-05-04 15:04 | 51.66739 | 2.08013 | 35987 ft | 391 kts | 327° |
| 2026-05-04 15:04 | 51.69131 | 2.05960 | 36018 ft | 391 kts | 329° |
| 2026-05-04 15:04 | 51.74004 | 2.01968 | 36010 ft | 393 kts | 329° |
| 2026-05-04 15:05 | 51.78860 | 1.97899 | 36007 ft | 394 kts | 329° |
| 2026-05-04 15:05 | 51.83718 | 1.93751 | 36009 ft | 395 kts | 328° |
| 2026-05-04 15:06 | 51.88546 | 1.89490 | 35989 ft | 394 kts | 319° |
| 2026-05-04 15:06 | 51.90479 | 1.86447 | 36015 ft | 384 kts | 301° |
| 2026-05-04 15:07 | 51.93063 | 1.78997 | 36001 ft | 381 kts | 294° |
| 2026-05-04 15:07 | 51.95512 | 1.71324 | 35378 ft | 391 kts | 294° |
| 2026-05-04 15:07 | 51.96783 | 1.67373 | 34687 ft | 398 kts | 294° |
| 2026-05-04 15:08 | 51.98102 | 1.63311 | 33974 ft | 405 kts | 294° |
| 2026-05-04 15:08 | 51.99411 | 1.59298 | 33173 ft | 411 kts | 294° |
| 2026-05-04 15:08 | 52.00779 | 1.55117 | 32355 ft | 416 kts | 294° |
| 2026-05-04 15:08 | 52.02123 | 1.51007 | 31638 ft | 420 kts | 294° |
| 2026-05-04 15:09 | 52.03512 | 1.46757 | 30945 ft | 422 kts | 295° |
| 2026-05-04 15:09 | 52.04894 | 1.42521 | 30201 ft | 426 kts | 295° |
| 2026-05-04 15:09 | 52.06230 | 1.38415 | 29401 ft | 428 kts | 295° |
| 2026-05-04 15:10 | 52.08998 | 1.29889 | 27768 ft | 430 kts | 295° |
| 2026-05-04 15:10 | 52.10389 | 1.25510 | 26964 ft | 429 kts | 291° |
| 2026-05-04 15:10 | 52.11105 | 1.16095 | 25647 ft | 415 kts | 259° |
| 2026-05-04 15:11 | 52.10444 | 1.11594 | 25164 ft | 401 kts | 254° |
| 2026-05-04 15:11 | 52.09693 | 1.07247 | 24649 ft | 387 kts | 253° |
| 2026-05-04 15:11 | 52.08962 | 1.03113 | 24169 ft | 375 kts | 253° |
| 2026-05-04 15:11 | 52.08257 | 0.99096 | 23689 ft | 365 kts | 253° |
| 2026-05-04 15:12 | 52.07582 | 0.95180 | 23288 ft | 355 kts | 254° |
| 2026-05-04 15:12 | 52.06926 | 0.91331 | 22882 ft | 352 kts | 254° |
| 2026-05-04 15:12 | 52.06370 | 0.88049 | 22508 ft | 344 kts | 254° |
| 2026-05-04 15:12 | 52.05807 | 0.84707 | 22131 ft | 335 kts | 254° |
| 2026-05-04 15:13 | 52.05395 | 0.82263 | 21854 ft | 329 kts | 254° |
| 2026-05-04 15:13 | 52.04798 | 0.78730 | 21448 ft | 320 kts | 253° |
| 2026-05-04 15:13 | 52.04216 | 0.75285 | 21055 ft | 313 kts | 253° |
| 2026-05-04 15:13 | 52.03646 | 0.71920 | 20672 ft | 306 kts | 253° |
| 2026-05-04 15:14 | 52.03087 | 0.68623 | 20278 ft | 300 kts | 253° |
| 2026-05-04 15:14 | 52.02545 | 0.65433 | 19837 ft | 297 kts | 253° |
| 2026-05-04 15:14 | 52.01990 | 0.62183 | 19392 ft | 294 kts | 253° |
| 2026-05-04 15:14 | 52.01489 | 0.58995 | 18952 ft | 292 kts | 261° |
| 2026-05-04 15:15 | 52.01610 | 0.55800 | 18535 ft | 293 kts | 284° |
| 2026-05-04 15:15 | 52.02445 | 0.52938 | 18122 ft | 294 kts | 304° |
| 2026-05-04 15:15 | 52.03933 | 0.50665 | 17629 ft | 296 kts | 327° |
| 2026-05-04 15:16 | 52.07920 | 0.49652 | 16688 ft | 299 kts | 15° |
| 2026-05-04 15:16 | 52.09778 | 0.51104 | 16238 ft | 298 kts | 37° |
| 2026-05-04 15:16 | 52.11841 | 0.56687 | 15321 ft | 293 kts | 82° |
| 2026-05-04 15:17 | 52.12068 | 0.60039 | 14882 ft | 291 kts | 86° |
| 2026-05-04 15:17 | 52.12411 | 0.66558 | 14016 ft | 289 kts | 85° |
| 2026-05-04 15:17 | 52.12591 | 0.69812 | 13560 ft | 288 kts | 85° |
| 2026-05-04 15:18 | 52.12774 | 0.73046 | 13084 ft | 287 kts | 85° |
| 2026-05-04 15:18 | 52.12844 | 0.76270 | 12590 ft | 285 kts | 100° |
| 2026-05-04 15:18 | 52.12196 | 0.79249 | 12271 ft | 278 kts | 123° |
| 2026-05-04 15:19 | 52.09317 | 0.83080 | 11573 ft | 273 kts | 164° |
| 2026-05-04 15:19 | 52.07438 | 0.83510 | 11203 ft | 271 kts | 186° |
| 2026-05-04 15:19 | 52.04113 | 0.81045 | 10473 ft | 268 kts | 228° |
| 2026-05-04 15:20 | 52.03033 | 0.78587 | 10073 ft | 269 kts | 244° |
| 2026-05-04 15:20 | 52.02506 | 0.75669 | 9647 ft | 272 kts | 263° |
| 2026-05-04 15:20 | 52.02315 | 0.72604 | 9208 ft | 274 kts | 265° |
| 2026-05-04 15:20 | 52.02161 | 0.69500 | 8771 ft | 277 kts | 265° |
| 2026-05-04 15:21 | 52.02034 | 0.66388 | 8536 ft | 272 kts | 266° |
| 2026-05-04 15:21 | 52.01918 | 0.63418 | 8421 ft | 256 kts | 265° |
| 2026-05-04 15:21 | 52.01699 | 0.57935 | 7976 ft | 237 kts | 265° |
| 2026-05-04 15:22 | 52.01593 | 0.55386 | 7574 ft | 238 kts | 265° |
| 2026-05-04 15:22 | 52.01482 | 0.52721 | 7277 ft | 236 kts | 265° |
| 2026-05-04 15:22 | 52.01256 | 0.47400 | 6660 ft | 234 kts | 265° |
| 2026-05-04 15:23 | 52.01117 | 0.44692 | 6229 ft | 237 kts | 262° |
| 2026-05-04 15:23 | 52.00565 | 0.42265 | 6082 ft | 229 kts | 240° |
| 2026-05-04 15:23 | 52.00167 | 0.39811 | 6009 ft | 230 kts | 275° |
| 2026-05-04 15:23 | 52.00350 | 0.37219 | 6031 ft | 235 kts | 272° |
| 2026-05-04 15:24 | 52.00288 | 0.31948 | 6007 ft | 240 kts | 265° |
| 2026-05-04 15:24 | 51.99666 | 0.26779 | 6000 ft | 232 kts | 231° |
| 2026-05-04 15:25 | 51.98541 | 0.24939 | 6013 ft | 229 kts | 223° |
| 2026-05-04 15:25 | 51.97383 | 0.23182 | 6005 ft | 228 kts | 223° |
| 2026-05-04 15:25 | 51.96218 | 0.21413 | 5818 ft | 235 kts | 224° |
| 2026-05-04 15:26 | 51.93759 | 0.17621 | 5133 ft | 247 kts | 224° |
| 2026-05-04 15:26 | 51.92509 | 0.15687 | 4783 ft | 250 kts | 224° |
| 2026-05-04 15:26 | 51.89977 | 0.11765 | 4066 ft | 254 kts | 224° |
| 2026-05-04 15:27 | 51.88680 | 0.09758 | 3704 ft | 256 kts | 224° |
| 2026-05-04 15:27 | 51.86090 | 0.05758 | 3032 ft | 258 kts | 224° |
| 2026-05-04 15:28 | 51.83506 | 0.01994 | 2718 ft | 245 kts | 222° |
| 2026-05-04 15:28 | 51.82247 | 0.00191 | 2571 ft | 238 kts | 222° |
| 2026-05-04 15:28 | 51.79625 | -0.02579 | 2503 ft | 216 kts | 181° |
| 2026-05-04 15:29 | 51.78292 | -0.01916 | 2504 ft | 198 kts | 136° |
| 2026-05-04 15:30 | 51.78005 | 0.06018 | 2478 ft | 176 kts | 60° |
| 2026-05-04 15:30 | 51.79920 | 0.10441 | 2494 ft | 157 kts | 45° |
| 2026-05-04 15:31 | 51.81503 | 0.12942 | 2107 ft | 158 kts | 41° |
| 2026-05-04 15:31 | 51.82289 | 0.14132 | 1904 ft | 151 kts | 41° |
| 2026-05-04 15:32 | 51.84392 | 0.17301 | 1337 ft | 121 kts | 39° |
| 2026-05-04 15:32 | 51.85621 | 0.19149 | 970 ft | 130 kts | 40° |
| 2026-05-04 15:33 | 51.86921 | 0.21130 | 561 ft | 129 kts | 40° |
| 2026-05-04 15:34 | 51.88562 | 0.23562 | 336 ft | 51 kts | 42° |
| 2026-05-04 15:34 | 51.88775 | 0.23890 | 334 ft | 33 kts | 47° |
| 2026-05-04 15:34 | 51.88915 | 0.24401 | 347 ft | 18 kts | 73° |
| 2026-05-04 15:35 | 51.88831 | 0.24662 | 351 ft | 11 kts | 123° |
| 2026-05-04 15:35 | 51.88847 | 0.24776 | 342 ft | 11 kts | 47° |
| 2026-05-04 15:35 | 51.88904 | 0.24863 | 344 ft | 11 kts | 44° |
| 2026-05-04 15:36 | 51.89016 | 0.25039 | 342 ft | 11 kts | 44° |
| 2026-05-04 15:36 | 51.89072 | 0.25119 | 342 ft | 11 kts | 39° |
| 2026-05-04 15:36 | 51.89127 | 0.25197 | 342 ft | 10 kts | 44° |
| 2026-05-04 15:37 | 51.89174 | 0.25283 | 348 ft | 10 kts | 63° |
| 2026-05-04 15:37 | 51.89168 | 0.25344 | 345 ft | 10 kts | 118° |
| 2026-05-04 15:37 | 51.89125 | 0.25422 | 354 ft | 6 kts | 132° |
| 2026-05-04 15:37 | 51.89115 | 0.25487 | 345 ft | 6 kts | 68° |
| 2026-05-04 15:38 | 51.89131 | 0.25522 | 352 ft | 0 kts | 54° |